Time;durP1;ratioP1;P1;durP2;ratioP2;P2;SDS_P1;SDS_P2;PMS_P1;PMS_P2;Temp;Humidity;BMP_temperature;BMP_pressure;BME280_temperature;BME280_humidity;BME280_pressure;Samples;Min_cycle;Max_cycle;Signal;HPM_P1;HPM_P2
2022/12/30 00:01:08;;;;;;;3.87;0.97;;;;;;;11.04;63.78;100567.53;4915893;28;97793;-53
2022/12/30 00:03:35;;;;;;;4.63;1.37;;;;;;;11.03;63.73;100568.81;4915539;28;97347;-53
2022/12/30 00:06:01;;;;;;;6.83;1.33;;;;;;;11.03;63.90;100561.28;4914883;28;97467;-52
2022/12/30 00:11:10;;;;;;;2.57;0.90;;;;;;;10.97;64.00;100565.25;4913999;28;101723;-55
2022/12/30 00:33:33;;;;;;;7.00;1.73;;;;;;;10.79;63.70;100591.22;4916410;28;97136;-52
2022/12/30 00:35:59;;;;;;;6.20;1.37;;;;;;;10.78;64.10;100602.75;4917858;28;101618;-52
2022/12/30 00:38:24;;;;;;;13.60;1.60;;;;;;;10.74;64.22;100597.47;4915145;28;97302;-52
2022/12/30 00:43:34;;;;;;;4.53;1.20;;;;;;;10.77;64.42;100648.75;4915547;28;102197;-51
2022/12/30 00:45:59;;;;;;;9.10;1.70;;;;;;;10.81;64.34;100630.00;4915812;28;96776;-51
2022/12/30 00:56:37;;;;;;;6.83;1.67;;;;;;;10.88;64.15;100637.81;4916698;28;97160;-51
2022/12/30 00:59:04;;;;;;;6.20;1.70;;;;;;;10.86;64.23;100634.03;4920067;28;96860;-51
2022/12/30 01:01:29;;;;;;;4.13;1.20;;;;;;;10.83;64.22;100649.56;4917867;28;97461;-51
2022/12/30 01:03:54;;;;;;;6.63;1.43;;;;;;;10.87;64.37;100647.31;4920067;28;99066;-51
2022/12/30 01:06:20;;;;;;;5.20;1.63;;;;;;;10.91;64.22;100644.31;4917370;28;97420;-52
2022/12/30 01:08:45;;;;;;;4.83;1.57;;;;;;;10.93;64.12;100647.34;4920144;28;97692;-51
2022/12/30 01:11:10;;;;;;;3.80;1.57;;;;;;;10.91;64.19;100644.31;4915896;28;97149;-52
2022/12/30 01:13:37;;;;;;;8.07;1.40;;;;;;;10.92;64.10;100654.84;4910183;28;97474;-51
2022/12/30 01:16:11;;;;;;;4.23;1.40;;;;;;;10.91;63.65;100658.84;4914227;28;97598;-50
2022/12/30 01:18:37;;;;;;;5.27;1.40;;;;;;;10.86;64.09;100664.31;4916547;28;96980;-52
2022/12/30 01:21:03;;;;;;;6.17;1.60;;;;;;;10.87;64.11;100658.34;4917648;28;97110;-54
2022/12/30 01:23:28;;;;;;;4.07;1.20;;;;;;;10.87;63.97;100665.84;4917645;28;97239;-52
2022/12/30 01:25:54;;;;;;;6.87;1.60;;;;;;;10.87;64.08;100668.59;4919512;28;97300;-51
2022/12/30 01:28:19;;;;;;;7.37;1.80;;;;;;;10.88;63.93;100679.09;4918893;28;97015;-52
2022/12/30 01:30:44;;;;;;;3.43;1.43;;;;;;;10.87;64.12;100698.84;4917874;28;97052;-51
2022/12/30 01:33:10;;;;;;;4.70;1.50;;;;;;;10.89;64.01;100691.63;4919794;28;97122;-50
2022/12/30 01:35:35;;;;;;;6.00;1.97;;;;;;;10.90;63.94;100687.59;4918108;28;97772;-54
2022/12/30 01:38:01;;;;;;;4.20;1.30;;;;;;;10.85;63.65;100695.84;4919013;28;97027;-53
2022/12/30 01:40:26;;;;;;;5.10;1.70;;;;;;;10.84;63.83;100689.59;4917945;28;97345;-51
2022/12/30 01:42:51;;;;;;;7.73;1.60;;;;;;;10.82;63.76;100703.09;4917957;28;97649;-54
2022/12/30 01:45:27;;;;;;;4.60;1.60;;;;;;;10.84;63.45;100699.84;4916773;28;97312;-51
2022/12/30 01:48:10;;;;;;;4.63;1.20;;;;;;;10.82;63.57;100705.84;4920060;28;97354;-51
2022/12/30 01:50:47;;;;;;;4.17;1.03;;;;;;;10.84;63.92;100703.34;4918238;28;96916;-54
2022/12/30 01:53:16;;;;;;;7.97;1.60;;;;;;;10.85;63.84;100715.88;4921466;28;101986;-52
2022/12/30 01:55:51;;;;;;;3.83;1.30;;;;;;;10.87;63.85;100715.38;4918760;28;97297;-52
2022/12/30 01:58:23;;;;;;;4.83;1.20;;;;;;;10.84;63.71;100719.09;4921002;28;96756;-52
2022/12/30 02:00:49;;;;;;;8.77;1.40;;;;;;;10.85;63.71;100720.63;4921398;28;97293;-52
2022/12/30 02:03:15;;;;;;;3.63;1.60;;;;;;;10.80;63.70;100722.09;4921889;28;97340;-52
2022/12/30 02:05:42;;;;;;;5.43;1.00;;;;;;;10.77;63.69;100722.31;4919037;28;97809;-52
2022/12/30 02:08:12;;;;;;;5.07;1.40;;;;;;;10.72;63.65;100717.53;4918853;28;96948;-52
2022/12/30 02:10:42;;;;;;;3.67;1.60;;;;;;;10.67;63.67;100719.00;4920233;28;97283;-53
2022/12/30 02:13:12;;;;;;;1.57;0.90;;;;;;;10.62;63.56;100716.97;4922954;28;97352;-52
2022/12/30 02:15:57;;;;;;;6.33;1.73;;;;;;;10.57;63.35;100712.94;4922066;28;97312;-52
2022/12/30 02:18:22;;;;;;;3.40;1.20;;;;;;;10.54;63.99;100715.91;4918378;28;97066;-52
2022/12/30 02:20:53;;;;;;;4.93;1.50;;;;;;;10.49;63.93;100725.63;4925016;28;96717;-52
2022/12/30 02:23:54;;;;;;;4.50;1.60;;;;;;;10.45;63.13;100722.38;4919672;28;97160;-52
2022/12/30 02:26:28;;;;;;;3.67;1.20;;;;;;;10.39;64.05;100723.56;4922123;28;101451;-51
2022/12/30 02:28:56;;;;;;;8.53;1.40;;;;;;;10.35;63.86;100725.78;4920991;28;96872;-53
2022/12/30 02:31:29;;;;;;;6.13;2.53;;;;;;;10.37;63.90;100723.31;4920099;28;96927;-52
2022/12/30 02:34:14;;;;;;;4.23;1.63;;;;;;;10.39;63.67;100737.31;4916464;28;97528;-52
2022/12/30 02:37:14;;;;;;;3.13;1.27;;;;;;;10.40;63.73;100727.81;4918028;28;97095;-51
2022/12/30 02:39:52;;;;;;;9.30;1.67;;;;;;;10.39;63.66;100731.81;4914693;28;96921;-53
2022/12/30 02:45:21;;;;;;;6.27;1.97;;;;;;;10.34;63.92;100735.28;4910826;28;101777;-52
2022/12/30 02:48:00;;;;;;;8.50;1.60;;;;;;;10.35;63.50;100753.28;4910873;28;97296;-51
2022/12/30 02:53:22;;;;;;;4.03;1.50;;;;;;;10.27;63.79;100754.97;4919892;28;97342;-52
2022/12/30 02:55:48;;;;;;;1.60;1.20;;;;;;;10.23;63.81;100754.44;4915887;28;99202;-51
2022/12/30 02:58:14;;;;;;;7.97;1.60;;;;;;;10.21;63.59;100757.66;4905151;28;98495;-52
2022/12/30 03:04:10;;;;;;;2.80;0.93;;;;;;;10.11;63.74;100750.81;4915029;28;96918;-51
2022/12/30 03:06:49;;;;;;;5.17;1.70;;;;;;;10.10;63.98;100763.03;4918083;28;97119;-50
2022/12/30 03:11:12;;;;;;;4.27;1.30;;;;;;;10.06;63.39;100754.25;4921649;28;102696;-53
2022/12/30 03:12:43;;;;;;;7.80;1.23;;;;;;;10.03;64.01;100755.22;4917140;28;97717;-51
2022/12/30 03:15:19;;;;;;;2.50;1.17;;;;;;;10.05;63.76;100762.97;4918427;28;97091;-53
2022/12/30 03:17:47;;;;;;;4.73;1.50;;;;;;;10.04;63.82;100764.22;4917741;28;97478;-52
2022/12/30 03:20:17;;;;;;;3.43;1.10;;;;;;;10.09;64.02;100758.03;4916776;28;96995;-52
2022/12/30 03:28:15;;;;;;;2.80;1.10;;;;;;;10.05;63.82;100758.22;4921318;28;101009;-52
2022/12/30 03:30:55;;;;;;;6.93;1.70;;;;;;;10.05;63.53;100755.47;4915779;28;97408;-52
2022/12/30 03:33:21;;;;;;;3.10;1.10;;;;;;;10.04;64.02;100755.97;4918523;28;97603;-51
2022/12/30 03:36:08;;;;;;;5.10;1.30;;;;;;;10.01;63.76;100757.69;4918684;28;97412;-53
2022/12/30 03:38:38;;;;;;;4.20;1.37;;;;;;;9.95;63.90;100767.91;4914663;28;101947;-53
2022/12/30 03:41:06;;;;;;;5.93;1.10;;;;;;;9.92;63.95;100759.84;4917784;28;97012;-52
2022/12/30 03:43:33;;;;;;;10.20;1.23;;;;;;;9.91;64.04;100756.38;4917499;28;99662;-52
2022/12/30 03:45:58;;;;;;;5.00;1.40;;;;;;;9.89;63.95;100766.31;4915982;28;96837;-52
2022/12/30 03:48:24;;;;;;;9.07;1.70;;;;;;;9.88;63.99;100765.56;4917579;28;96925;-52
2022/12/30 03:50:49;;;;;;;4.40;1.20;;;;;;;9.89;64.07;100769.06;4918387;28;97192;-52
2022/12/30 03:53:14;;;;;;;8.67;1.23;;;;;;;9.91;64.01;100772.84;4918196;28;97290;-53
2022/12/30 03:55:40;;;;;;;3.63;1.50;;;;;;;9.87;63.99;100769.56;4914649;28;97388;-51
2022/12/30 03:58:05;;;;;;;3.87;1.30;;;;;;;9.85;64.07;100777.50;4915609;28;99227;-52
2022/12/30 04:00:32;;;;;;;7.60;1.50;;;;;;;9.81;64.00;100780.50;4915265;28;96920;-53
2022/12/30 04:02:57;;;;;;;5.50;1.20;;;;;;;9.76;64.09;100775.69;4915251;28;97383;-52
2022/12/30 04:05:22;;;;;;;3.60;1.47;;;;;;;9.78;64.12;100791.69;4917361;28;97182;-52
2022/12/30 04:07:48;;;;;;;7.37;1.37;;;;;;;9.77;64.08;100784.69;4917510;28;96899;-52
2022/12/30 04:10:13;;;;;;;4.13;1.03;;;;;;;9.74;64.05;100783.66;4922833;28;97152;-52
2022/12/30 04:12:39;;;;;;;6.70;1.83;;;;;;;9.73;64.14;100784.13;4918853;28;96843;-50
2022/12/30 04:15:05;;;;;;;3.50;0.97;;;;;;;9.71;64.21;100792.88;4917295;28;96909;-52
2022/12/30 04:17:31;;;;;;;6.80;1.33;;;;;;;9.69;64.22;100787.13;4916328;28;96747;-50
2022/12/30 04:19:56;;;;;;;6.63;1.67;;;;;;;9.67;64.00;100783.34;4915941;28;97068;-51
2022/12/30 04:22:21;;;;;;;7.00;1.53;;;;;;;9.65;64.25;100791.31;4914304;28;97212;-52
2022/12/30 04:24:47;;;;;;;5.80;1.23;;;;;;;9.64;64.19;100789.78;4918775;28;97167;-51
2022/12/30 04:27:12;;;;;;;5.57;1.80;;;;;;;9.62;64.22;100792.25;4918882;28;97373;-53
2022/12/30 04:29:37;;;;;;;7.13;1.60;;;;;;;9.60;64.30;100797.47;4915635;28;97349;-52
2022/12/30 04:32:03;;;;;;;4.83;1.50;;;;;;;9.61;64.39;100802.47;4914920;28;96744;-52
2022/12/30 04:34:28;;;;;;;5.47;1.77;;;;;;;9.57;64.17;100796.44;4916893;28;97725;-52
2022/12/30 04:36:53;;;;;;;3.40;1.77;;;;;;;9.54;64.38;100802.91;4919691;28;96821;-50
2022/12/30 04:39:19;;;;;;;4.93;1.50;;;;;;;9.57;64.34;100801.16;4917074;28;96800;-53
2022/12/30 04:41:44;;;;;;;3.90;1.30;;;;;;;9.58;64.24;100813.69;4915550;28;96966;-52
2022/12/30 04:44:10;;;;;;;5.60;1.47;;;;;;;9.56;64.37;100816.16;4917750;28;96903;-52
2022/12/30 04:46:35;;;;;;;5.53;2.20;;;;;;;9.55;64.31;100814.63;4918157;28;97304;-51
2022/12/30 04:49:00;;;;;;;6.30;1.70;;;;;;;9.52;64.41;100823.84;4917657;28;97261;-50
2022/12/30 04:51:26;;;;;;;2.50;1.80;;;;;;;9.51;64.47;100830.56;4917201;28;96846;-52
2022/12/30 04:53:51;;;;;;;4.47;1.50;;;;;;;9.51;64.47;100831.31;4921039;28;97162;-52
2022/12/30 04:56:17;;;;;;;4.40;1.33;;;;;;;9.50;64.37;100826.31;4918552;28;96883;-51
2022/12/30 04:58:43;;;;;;;6.90;1.80;;;;;;;9.49;64.33;100849.53;4905957;28;97314;-52
2022/12/30 05:01:08;;;;;;;5.70;1.40;;;;;;;9.46;64.57;100839.47;4917145;28;97133;-52
2022/12/30 05:03:34;;;;;;;11.07;1.50;;;;;;;9.46;64.63;100839.47;4917034;28;98714;-52
2022/12/30 05:05:59;;;;;;;6.43;1.50;;;;;;;9.45;64.37;100843.47;4919443;28;96859;-52
2022/12/30 05:08:24;;;;;;;6.70;1.60;;;;;;;9.46;64.71;100853.22;4916508;28;97119;-52
2022/12/30 05:10:50;;;;;;;5.50;1.80;;;;;;;9.45;64.61;100847.00;4917646;28;97192;-52
2022/12/30 05:13:15;;;;;;;7.83;1.87;;;;;;;9.42;64.63;100847.94;4915240;28;97564;-51
2022/12/30 05:15:41;;;;;;;3.47;1.70;;;;;;;9.43;64.59;100845.94;4918218;28;97374;-51
2022/12/30 05:18:07;;;;;;;3.93;1.43;;;;;;;9.42;64.59;100845.19;4919489;28;96987;-52
2022/12/30 05:20:32;;;;;;;6.57;1.90;;;;;;;9.44;64.49;100856.44;4914768;28;97365;-52
2022/12/30 05:22:58;;;;;;;4.63;1.73;;;;;;;9.43;64.56;100862.44;4916922;28;96860;-51
2022/12/30 05:28:07;;;;;;;3.37;1.40;;;;;;;9.40;64.73;100866.88;4916109;28;97297;-52
2022/12/30 05:30:32;;;;;;;5.17;1.60;;;;;;;9.38;64.71;100866.59;4913456;28;97142;-52
2022/12/30 05:32:58;;;;;;;6.03;1.90;;;;;;;9.38;64.86;100874.84;4914671;28;97104;-52
2022/12/30 05:35:23;;;;;;;7.00;2.20;;;;;;;9.40;64.72;100855.13;4918866;28;97044;-54
2022/12/30 05:37:49;;;;;;;7.30;2.20;;;;;;;9.40;64.79;100846.91;4918219;28;97188;-50
2022/12/30 05:40:14;;;;;;;15.63;1.93;;;;;;;9.40;64.75;100844.91;4912260;28;97330;-53
2022/12/30 05:42:39;;;;;;;6.27;2.10;;;;;;;9.40;64.79;100842.16;4917844;28;97368;-52
2022/12/30 05:45:06;;;;;;;4.77;2.20;;;;;;;9.35;64.61;100853.81;4918324;28;97445;-51
2022/12/30 05:47:32;;;;;;;4.03;1.53;;;;;;;9.34;64.90;100871.53;4913482;28;97849;-51
2022/12/30 05:49:57;;;;;;;4.33;1.90;;;;;;;9.35;64.72;100873.03;4914704;28;97185;-51
2022/12/30 05:52:22;;;;;;;9.27;1.87;;;;;;;9.33;64.83;100880.25;4919120;28;97253;-52
2022/12/30 05:54:48;;;;;;;7.23;2.07;;;;;;;9.35;64.92;100869.56;4914164;28;98486;-51
2022/12/30 05:57:13;;;;;;;7.20;2.30;;;;;;;9.33;64.76;100869.25;4919974;28;97064;-50
2022/12/30 05:59:38;;;;;;;6.90;1.93;;;;;;;9.33;64.63;100878.25;4920225;28;96891;-52
2022/12/30 06:02:04;;;;;;;5.27;1.60;;;;;;;9.34;64.95;100879.03;4917787;28;96769;-52
2022/12/30 06:04:29;;;;;;;3.80;1.80;;;;;;;9.35;64.70;100877.78;4919230;28;97541;-52
2022/12/30 06:06:55;;;;;;;2.40;1.37;;;;;;;9.34;64.68;100877.03;4917300;28;96727;-52
2022/12/30 06:09:20;;;;;;;6.20;1.90;;;;;;;9.30;64.77;100883.97;4917855;28;97393;-50
2022/12/30 06:11:46;;;;;;;6.30;1.97;;;;;;;9.32;64.66;100878.75;4914380;28;97381;-53
2022/12/30 06:14:14;;;;;;;6.63;2.13;;;;;;;9.30;64.74;100875.72;4916328;28;97293;-52
2022/12/30 06:16:40;;;;;;;4.00;1.50;;;;;;;9.33;64.64;100882.97;4913408;28;96933;-51
2022/12/30 06:19:05;;;;;;;6.80;1.87;;;;;;;9.31;64.60;100888.97;4914563;28;97820;-50
2022/12/30 06:21:31;;;;;;;3.53;1.60;;;;;;;9.25;64.46;100885.38;4916650;28;96888;-51
2022/12/30 06:23:56;;;;;;;4.43;1.70;;;;;;;9.22;64.46;100880.84;4918720;28;96778;-52
2022/12/30 06:26:22;;;;;;;5.80;2.10;;;;;;;9.17;64.65;100883.50;4917987;28;99983;-52
2022/12/30 06:28:47;;;;;;;9.73;2.13;;;;;;;9.14;64.28;100885.22;4918357;28;96977;-51
2022/12/30 06:31:12;;;;;;;6.40;1.50;;;;;;;9.09;64.81;100888.63;4920765;28;96679;-54
2022/12/30 06:33:38;;;;;;;4.20;1.60;;;;;;;9.04;64.52;100887.31;4922864;28;97280;-52
2022/12/30 06:36:03;;;;;;;4.10;1.73;;;;;;;8.98;64.56;100889.22;4922441;28;97155;-52
2022/12/30 06:38:29;;;;;;;11.73;2.20;;;;;;;8.92;64.66;100891.13;4909694;28;98600;-52
2022/12/30 06:40:54;;;;;;;6.63;2.10;;;;;;;8.89;64.95;100886.56;4921321;28;97269;-50
2022/12/30 06:43:20;;;;;;;5.60;2.17;;;;;;;8.88;65.00;100887.81;4923290;28;97298;-52
2022/12/30 06:45:45;;;;;;;5.03;1.93;;;;;;;8.88;65.03;100887.81;4918360;28;97426;-52
2022/12/30 06:48:10;;;;;;;3.83;2.03;;;;;;;8.86;65.00;100893.03;4916747;28;96994;-50
2022/12/30 06:50:36;;;;;;;2.60;1.60;;;;;;;8.87;65.06;100878.06;4918498;28;97448;-51
2022/12/30 06:53:02;;;;;;;5.03;1.70;;;;;;;8.87;64.89;100886.28;4919403;28;97660;-52
2022/12/30 06:55:27;;;;;;;6.77;1.47;;;;;;;8.83;64.78;100888.47;4919455;28;98143;-53
2022/12/30 06:57:52;;;;;;;4.13;1.60;;;;;;;8.83;65.19;100887.72;4918199;28;97261;-51
2022/12/30 07:00:18;;;;;;;6.83;2.13;;;;;;;8.80;64.96;100888.69;4921231;28;96996;-52
2022/12/30 07:02:43;;;;;;;4.10;1.97;;;;;;;8.79;64.99;100882.44;4917584;28;97181;-52
2022/12/30 07:05:09;;;;;;;3.03;1.33;;;;;;;8.79;65.10;100890.66;4916055;28;96668;-52
2022/12/30 07:07:34;;;;;;;7.10;1.73;;;;;;;8.77;64.99;100895.88;4917712;28;96935;-52
2022/12/30 07:09:59;;;;;;;4.13;1.60;;;;;;;8.76;65.07;100905.31;4922983;28;96935;-52
2022/12/30 07:12:25;;;;;;;14.27;2.50;;;;;;;8.76;65.07;100910.03;4917268;28;97328;-51
2022/12/30 07:14:50;;;;;;;6.83;1.40;;;;;;;8.74;65.41;100901.53;4918145;28;97508;-53
2022/12/30 07:17:15;;;;;;;4.43;1.50;;;;;;;8.75;65.20;100903.81;4921075;28;96997;-52
2022/12/30 07:19:41;;;;;;;7.40;1.80;;;;;;;8.74;65.12;100901.53;4919273;28;96761;-52
2022/12/30 07:22:06;;;;;;;9.27;1.27;;;;;;;8.72;65.27;100903.97;4918984;28;99027;-52
2022/12/30 07:24:32;;;;;;;4.47;1.30;;;;;;;8.73;65.03;100916.47;4919165;28;97456;-52
2022/12/30 07:26:57;;;;;;;4.80;1.27;;;;;;;8.71;65.14;100916.19;4921110;28;96990;-52
2022/12/30 07:29:22;;;;;;;3.73;1.57;;;;;;;8.68;65.02;100912.41;4917595;28;97038;-52
2022/12/30 07:31:48;;;;;;;7.47;2.20;;;;;;;8.63;65.34;100907.56;4912825;28;97897;-51
2022/12/30 07:34:13;;;;;;;5.03;1.40;;;;;;;8.61;65.42;100915.53;4917792;28;96925;-52
2022/12/30 07:36:39;;;;;;;8.83;1.87;;;;;;;8.62;65.11;100906.06;4919649;28;96754;-56
2022/12/30 07:39:06;;;;;;;4.27;1.50;;;;;;;8.62;65.41;100905.31;4918182;28;97252;-52
2022/12/30 07:41:32;;;;;;;6.07;2.10;;;;;;;8.60;65.40;100908.53;4923473;28;98243;-52
2022/12/30 07:43:57;;;;;;;3.47;1.23;;;;;;;8.61;65.37;100915.53;4919237;28;97221;-50
2022/12/30 07:46:23;;;;;;;6.57;1.37;;;;;;;8.61;65.57;100904.56;4917243;28;97016;-52
2022/12/30 07:48:48;;;;;;;3.90;1.47;;;;;;;8.66;65.44;100905.88;4917767;28;97584;-52
2022/12/30 07:51:15;;;;;;;6.93;1.73;;;;;;;8.68;65.39;100914.38;4917613;28;96912;-52
2022/12/30 07:53:42;;;;;;;6.63;1.67;;;;;;;8.68;65.56;100915.16;4919397;28;96922;-52
2022/12/30 07:56:09;;;;;;;4.47;1.40;;;;;;;8.69;65.53;100910.44;4922305;28;97125;-51
2022/12/30 07:58:35;;;;;;;4.33;1.30;;;;;;;8.67;65.49;100913.63;4919915;28;96974;-52
2022/12/30 08:01:09;;;;;;;3.07;1.33;;;;;;;8.70;65.44;100917.41;4921654;28;97305;-54
2022/12/30 08:03:35;;;;;;;4.00;1.27;;;;;;;8.67;65.40;100913.63;4918843;28;97205;-52
2022/12/30 08:06:06;;;;;;;8.67;1.53;;;;;;;8.68;65.33;100920.63;4920193;28;97139;-50
2022/12/30 08:08:32;;;;;;;8.10;1.80;;;;;;;8.64;65.36;100914.59;4918431;28;97208;-51
2022/12/30 08:10:58;;;;;;;5.47;1.67;;;;;;;8.64;65.60;100914.59;4913071;28;96901;-51
2022/12/30 08:13:24;;;;;;;2.40;0.90;;;;;;;8.63;65.20;100907.56;4916689;28;98397;-51
2022/12/30 08:15:49;;;;;;;8.07;1.37;;;;;;;8.65;65.64;100910.59;4916078;28;97086;-52
2022/12/30 08:18:14;;;;;;;3.90;1.27;;;;;;;8.66;65.33;100908.63;4917866;28;96913;-51
2022/12/30 08:20:40;;;;;;;1.97;1.30;;;;;;;8.65;65.36;100902.38;4916006;28;101888;-52
2022/12/30 08:23:05;;;;;;;10.50;1.40;;;;;;;8.68;65.52;100900.69;4920942;28;97373;-51
2022/12/30 08:25:31;;;;;;;4.03;1.77;;;;;;;8.68;65.39;100900.69;4916038;28;96771;-51
2022/12/30 08:27:56;;;;;;;4.30;1.23;;;;;;;8.71;65.55;100897.75;4919680;28;97114;-52
2022/12/30 08:30:21;;;;;;;9.70;1.47;;;;;;;8.72;65.65;100898.50;4918017;28;97436;-52
2022/12/30 08:32:47;;;;;;;2.77;1.00;;;;;;;8.75;65.67;100890.09;4916202;28;97191;-53
2022/12/30 08:35:12;;;;;;;2.37;1.50;;;;;;;8.80;65.36;100894.16;4915212;28;97053;-52
2022/12/30 08:37:37;;;;;;;5.33;2.13;;;;;;;8.80;65.56;100892.16;4916283;28;96949;-51
2022/12/30 08:40:04;;;;;;;6.40;1.20;;;;;;;8.84;65.33;100903.72;4916770;28;96924;-52
2022/12/30 08:42:29;;;;;;;6.87;1.47;;;;;;;8.85;65.57;100905.22;4918725;28;100100;-52
2022/12/30 08:44:54;;;;;;;2.40;0.97;;;;;;;8.87;65.46;100908.25;4917964;28;97562;-52
2022/12/30 08:47:20;;;;;;;7.97;1.40;;;;;;;8.91;65.61;100908.06;4918174;28;97007;-51
2022/12/30 08:49:45;;;;;;;3.40;1.07;;;;;;;8.95;65.33;100911.38;4919426;28;98952;-52
2022/12/30 08:52:11;;;;;;;4.00;1.20;;;;;;;8.98;65.48;100924.88;4918363;28;97161;-52
2022/12/30 08:54:36;;;;;;;5.83;1.57;;;;;;;9.01;65.48;100921.19;4916650;28;97307;-52
2022/12/30 08:57:02;;;;;;;2.03;1.17;;;;;;;9.05;65.49;100913.53;4915007;28;96775;-52
2022/12/30 08:59:27;;;;;;;6.10;1.10;;;;;;;9.11;65.45;100918.38;4914854;28;97201;-52
2022/12/30 09:01:53;;;;;;;3.33;1.30;;;;;;;9.13;65.50;100911.13;4918753;28;97690;-55
2022/12/30 09:04:18;;;;;;;7.30;1.30;;;;;;;9.17;65.49;100910.97;4921614;28;98718;-51
2022/12/30 09:06:44;;;;;;;6.00;1.20;;;;;;;9.20;65.52;100916.25;4918204;28;96998;-52
2022/12/30 09:09:12;;;;;;;6.27;1.37;;;;;;;9.26;65.36;100902.63;4914621;28;96880;-52
2022/12/30 09:11:38;;;;;;;5.90;1.40;;;;;;;9.33;65.39;100907.69;4910460;28;97254;-52
2022/12/30 09:14:06;;;;;;;10.70;1.50;;;;;;;9.38;65.29;100912.53;4897687;28;96799;-54
2022/12/30 09:16:32;;;;;;;4.43;1.13;;;;;;;9.39;65.45;100911.31;4907485;28;96839;-52
2022/12/30 09:18:57;;;;;;;2.70;1.10;;;;;;;9.43;65.29;100912.63;4910343;28;97805;-52
2022/12/30 09:21:24;;;;;;;4.70;1.30;;;;;;;9.52;65.28;100917.22;4913905;28;97324;-53
2022/12/30 09:23:49;;;;;;;3.70;1.03;;;;;;;9.56;65.14;100915.03;4919536;28;97142;-52
2022/12/30 09:26:21;;;;;;;6.57;1.30;;;;;;;9.62;65.13;100918.59;4916414;28;96897;-53
2022/12/30 09:28:47;;;;;;;5.40;1.17;;;;;;;9.68;64.96;100911.94;4917947;28;97490;-57
2022/12/30 09:31:13;;;;;;;2.63;0.90;;;;;;;9.75;65.09;100917.03;4908941;28;96732;-52
2022/12/30 09:33:38;;;;;;;5.57;1.30;;;;;;;9.81;64.87;100917.09;4913038;28;97139;-53
2022/12/30 09:36:05;;;;;;;1.83;1.00;;;;;;;9.85;64.78;100914.16;4916272;28;97390;-53
2022/12/30 09:38:31;;;;;;;4.50;1.40;;;;;;;9.91;64.89;100907.50;4914445;28;97879;-51
2022/12/30 09:43:14;;;;;;;5.03;1.50;;;;;;;9.98;64.63;100911.84;4914782;28;97696;-52
2022/12/30 09:44:25;;;;;;;9.50;1.60;;;;;;;10.02;64.58;100895.88;4912484;28;96721;-51
2022/12/30 09:47:29;;;;;;;5.40;1.13;;;;;;;10.07;63.99;100906.19;4914371;28;96939;-52
2022/12/30 09:50:05;;;;;;;3.90;1.20;;;;;;;10.13;64.62;100898.78;4914775;28;102351;-53
2022/12/30 09:52:40;;;;;;;1.43;1.07;;;;;;;10.16;64.19;100904.06;4915788;28;100450;-50
2022/12/30 09:55:13;;;;;;;3.93;1.27;;;;;;;10.22;64.21;100877.38;4917548;28;97322;-53
2022/12/30 09:57:40;;;;;;;3.77;0.80;;;;;;;10.25;64.20;100881.94;4914016;28;96843;-53
2022/12/30 10:00:14;;;;;;;1.67;0.70;;;;;;;10.26;63.91;100880.72;4917071;28;97558;-52
2022/12/30 10:03:15;;;;;;;2.03;0.90;;;;;;;10.24;62.68;100885.91;4922134;28;101763;-51
2022/12/30 10:05:53;;;;;;;2.27;1.17;;;;;;;10.30;63.71;100883.22;4915151;28;97558;-52
2022/12/30 10:08:24;;;;;;;2.80;0.90;;;;;;;10.35;64.15;100886.03;4914142;28;96772;-52
2022/12/30 10:11:01;;;;;;;4.00;1.47;;;;;;;10.41;63.96;100872.34;4914398;28;100558;-52
2022/12/30 10:13:40;;;;;;;2.10;0.77;;;;;;;10.46;63.84;100877.16;4915522;28;100341;-53
2022/12/30 10:16:09;;;;;;;5.10;0.80;;;;;;;10.50;64.06;100880.44;4918154;28;96955;-50
2022/12/30 10:19:07;;;;;;;1.37;0.87;;;;;;;10.53;63.31;100869.22;4917934;28;97272;-55
2022/12/30 10:21:55;;;;;;;3.43;0.63;;;;;;;10.55;63.34;100866.72;4918046;28;100574;-53
2022/12/30 10:24:43;;;;;;;8.03;1.17;;;;;;;10.62;63.40;100856.50;4917723;28;97623;-53
2022/12/30 10:27:21;;;;;;;2.73;1.10;;;;;;;10.66;63.49;100851.56;4914971;28;97249;-52
2022/12/30 10:29:46;;;;;;;2.17;0.83;;;;;;;10.70;63.70;100849.34;4916707;28;97348;-52
2022/12/30 10:32:19;;;;;;;2.53;0.87;;;;;;;10.74;63.54;100828.63;4916639;28;97408;-53
2022/12/30 10:34:47;;;;;;;5.23;1.00;;;;;;;10.75;63.49;100830.13;4915895;28;97205;-51
2022/12/30 10:37:35;;;;;;;2.70;1.10;;;;;;;10.78;62.81;100820.13;4917128;28;97357;-53
2022/12/30 10:40:08;;;;;;;2.07;0.80;;;;;;;10.85;63.34;100816.94;4913427;28;97378;-53
2022/12/30 10:43:18;;;;;;;3.40;0.90;;;;;;;10.88;62.67;100805.69;4911441;28;99359;-52
2022/12/30 10:46:09;;;;;;;2.47;1.10;;;;;;;10.86;62.47;100788.16;4914229;28;100169;-52
2022/12/30 10:48:49;;;;;;;2.80;0.77;;;;;;;10.93;62.81;100784.97;4914757;28;98260;-52
2022/12/30 10:51:17;;;;;;;5.23;1.10;;;;;;;10.96;63.22;100784.00;4913468;28;97126;-52
2022/12/30 10:53:46;;;;;;;4.20;0.90;;;;;;;11.01;63.13;100773.00;4914718;28;97303;-53
2022/12/30 10:56:23;;;;;;;1.73;0.90;;;;;;;11.09;62.92;100770.53;4919767;28;97265;-52
2022/12/30 10:58:49;;;;;;;2.57;1.23;;;;;;;11.11;63.10;100763.31;4912026;28;97252;-52
2022/12/30 11:01:19;;;;;;;2.07;1.10;;;;;;;11.14;62.74;100770.56;4919894;28;96910;-52
2022/12/30 11:03:50;;;;;;;3.43;0.80;;;;;;;11.15;62.79;100765.81;4917007;28;97334;-53
2022/12/30 11:06:21;;;;;;;4.73;0.97;;;;;;;11.18;63.01;100762.09;4913150;28;97380;-51
2022/12/30 11:08:46;;;;;;;1.87;1.30;;;;;;;11.22;62.92;100755.09;4914129;28;97115;-51
2022/12/30 11:11:12;;;;;;;4.73;0.80;;;;;;;11.25;62.73;100754.09;4918193;28;97305;-53
2022/12/30 11:16:28;;;;;;;1.90;0.90;;;;;;;11.27;62.32;100754.34;4915699;28;100952;-52
2022/12/30 11:18:56;;;;;;;3.80;1.07;;;;;;;11.27;62.63;100748.09;4918467;28;97106;-52
2022/12/30 11:21:35;;;;;;;2.50;1.10;;;;;;;11.26;61.96;100733.59;4917352;28;97093;-52
2022/12/30 11:24:03;;;;;;;0.90;0.80;;;;;;;11.27;62.33;100729.56;4914666;28;101161;-52
2022/12/30 11:26:32;;;;;;;4.27;0.80;;;;;;;11.29;62.58;100721.56;4916098;28;97213;-54
2022/12/30 11:29:08;;;;;;;2.50;0.77;;;;;;;11.33;62.19;100718.59;4915625;28;96971;-52
2022/12/30 11:31:42;;;;;;;5.17;0.67;;;;;;;11.32;62.22;100703.28;4919154;28;97375;-53
2022/12/30 11:34:19;;;;;;;3.83;1.00;;;;;;;11.36;61.96;100690.03;4917141;28;101715;-51
2022/12/30 11:36:44;;;;;;;3.87;1.03;;;;;;;11.40;62.54;100685.03;4915525;28;97313;-51
2022/12/30 11:39:25;;;;;;;2.33;0.60;;;;;;;11.40;61.61;100676.75;4918500;28;97183;-56
2022/12/30 11:41:56;;;;;;;5.57;0.80;;;;;;;11.42;61.89;100674.28;4913950;28;96948;-53
2022/12/30 11:44:30;;;;;;;1.93;0.80;;;;;;;11.42;61.78;100666.03;4900766;28;97328;-53
2022/12/30 11:46:59;;;;;;;5.03;0.70;;;;;;;11.43;62.25;100645.47;4909081;28;97185;-53
2022/12/30 11:49:47;;;;;;;4.20;0.67;;;;;;;11.51;61.67;100635.47;4913068;28;96980;-52
2022/12/30 11:52:21;;;;;;;4.67;0.80;;;;;;;11.56;62.05;100636.72;4915474;28;97789;-53
2022/12/30 11:54:50;;;;;;;5.17;0.97;;;;;;;11.60;62.08;100626.25;4903306;28;101853;-51
2022/12/30 11:57:30;;;;;;;5.30;0.63;;;;;;;11.64;61.15;100621.22;4913928;28;98529;-52
2022/12/30 12:00:01;;;;;;;4.90;0.80;;;;;;;11.65;61.94;100612.44;4917552;28;97572;-51
2022/12/30 12:02:30;;;;;;;2.23;1.00;;;;;;;11.71;61.59;100615.97;4915349;28;97275;-52
2022/12/30 12:04:56;;;;;;;1.30;1.07;;;;;;;11.75;61.79;100613.72;4914458;28;100554;-52
2022/12/30 12:07:31;;;;;;;2.50;0.97;;;;;;;11.78;61.84;100615.50;4917770;28;97475;-51
2022/12/30 12:10:11;;;;;;;4.60;1.13;;;;;;;11.80;60.85;100599.19;4915630;28;96799;-53
2022/12/30 12:13:12;;;;;;;1.37;0.83;;;;;;;11.80;61.00;100593.69;4919633;28;97456;-53
2022/12/30 12:15:46;;;;;;;1.30;0.50;;;;;;;11.83;61.51;100587.19;4917089;28;100661;-51
2022/12/30 12:18:17;;;;;;;2.00;0.70;;;;;;;11.83;61.36;100570.66;4914935;28;100704;-52
2022/12/30 12:21:16;;;;;;;5.10;1.20;;;;;;;11.81;60.85;100569.63;4916599;28;97305;-53
2022/12/30 12:23:54;;;;;;;1.17;0.70;;;;;;;11.78;61.03;100560.38;4913961;28;96994;-51
2022/12/30 12:26:30;;;;;;;2.07;0.70;;;;;;;11.79;61.41;100563.88;4912914;28;101822;-52
2022/12/30 12:28:57;;;;;;;4.20;0.93;;;;;;;11.76;61.74;100551.84;4914536;28;101557;-53
2022/12/30 12:31:32;;;;;;;3.07;0.80;;;;;;;11.77;61.33;100541.59;4914699;28;97078;-51
2022/12/30 12:34:22;;;;;;;1.60;1.00;;;;;;;11.80;61.39;100535.81;4913597;28;97453;-55